Time;durP1;ratioP1;P1;durP2;ratioP2;P2;SDS_P1;SDS_P2;PMS_P1;PMS_P2;Temp;Humidity;BMP_temperature;BMP_pressure;BME280_temperature;BME280_humidity;BME280_pressure;Samples;Min_cycle;Max_cycle;Signal;HPM_P1;HPM_P2
2023/04/10 00:00:32;;;;;;;13.32;8.15;;;;;;;8.51;74.86;102061.25;5005147;28;20582;-73
2023/04/10 00:03:00;;;;;;;14.57;8.40;;;;;;;8.49;75.59;102056.00;5004481;23;20050;-73
2023/04/10 00:12:59;;;;;;;12.85;8.13;;;;;;;8.55;73.67;102031.16;5279016;23;20062;-74
2023/04/10 00:15:25;;;;;;;11.98;7.97;;;;;;;8.58;74.00;102023.50;5137793;23;20084;-73
2023/04/10 00:17:53;;;;;;;13.20;8.13;;;;;;;8.59;74.03;102014.88;5178057;23;20054;-66
2023/04/10 00:20:20;;;;;;;12.60;8.00;;;;;;;8.57;74.34;102019.13;5060355;23;20033;-73
2023/04/10 00:22:45;;;;;;;16.23;7.65;;;;;;;8.53;74.36;102018.97;5043010;23;20031;-73
2023/04/10 00:25:11;;;;;;;11.25;7.53;;;;;;;8.57;73.55;102008.72;5148606;23;20028;-73
2023/04/10 00:27:36;;;;;;;12.68;7.80;;;;;;;8.57;73.74;102009.63;5252584;23;20058;-66
2023/04/10 00:30:01;;;;;;;12.55;8.15;;;;;;;8.59;73.46;102013.19;5112641;23;20054;-66
2023/04/10 00:37:27;;;;;;;12.10;7.85;;;;;;;8.69;72.19;101998.97;5277035;23;20085;-73
2023/04/10 00:42:27;;;;;;;12.50;7.60;;;;;;;8.75;72.37;101999.25;5263533;23;20050;-66
2023/04/10 00:44:53;;;;;;;13.60;8.68;;;;;;;8.76;72.36;101987.16;5109517;23;20065;-73
2023/04/10 00:52:24;;;;;;;12.85;7.53;;;;;;;8.74;71.86;101981.00;5242346;23;20065;-66
2023/04/10 00:54:49;;;;;;;13.40;8.38;;;;;;;8.75;72.18;101982.75;5315701;23;20030;-73
2023/04/10 00:57:15;;;;;;;12.30;7.88;;;;;;;8.75;72.25;101983.69;4986685;28;20085;-73
2023/04/10 00:59:40;;;;;;;12.68;7.85;;;;;;;8.70;72.54;101990.34;5149273;23;20050;-73
2023/04/10 01:02:06;;;;;;;12.60;7.78;;;;;;;8.68;71.19;101989.38;4975045;28;20076;-73
2023/04/10 01:06:59;;;;;;;12.30;7.75;;;;;;;8.74;71.00;101992.28;5283434;23;20526;-73
2023/04/10 01:09:38;;;;;;;14.30;8.27;;;;;;;8.74;71.53;101981.00;5117674;23;20065;-66
2023/04/10 01:14:48;;;;;;;12.57;8.02;;;;;;;8.70;70.89;101982.53;5075662;23;20058;-73
2023/04/10 01:17:21;;;;;;;12.82;8.02;;;;;;;8.67;71.24;101982.41;5284756;23;20061;-73
2023/04/10 01:32:54;;;;;;;12.13;7.47;;;;;;;8.59;71.91;101975.91;5074966;23;20087;-66
2023/04/10 01:35:20;;;;;;;10.82;7.18;;;;;;;8.56;71.85;101973.16;5049758;23;20064;-73
2023/04/10 01:37:49;;;;;;;11.52;7.70;;;;;;;8.53;71.93;101969.63;5186009;23;20057;-67
2023/04/10 01:40:18;;;;;;;10.55;6.93;;;;;;;8.51;71.69;101966.03;4994804;28;20030;-67
2023/04/10 01:47:55;;;;;;;10.85;7.18;;;;;;;8.41;72.46;101961.16;5216716;23;20073;-66
2023/04/10 01:52:55;;;;;;;11.93;7.70;;;;;;;8.33;72.84;101952.09;5286880;23;20106;-74
2023/04/10 01:55:21;;;;;;;12.73;7.93;;;;;;;8.28;72.78;101948.38;4965088;28;20026;-74
2023/04/10 01:57:47;;;;;;;12.05;7.57;;;;;;;8.25;73.27;101948.22;5164931;23;20096;-67
2023/04/10 02:00:14;;;;;;;11.93;7.90;;;;;;;8.18;72.71;101944.41;5164249;23;20041;-73
2023/04/10 02:05:11;;;;;;;14.20;8.07;;;;;;;8.15;72.72;101932.19;5161338;23;19930;-73
2023/04/10 02:08:11;;;;;;;12.60;7.63;;;;;;;8.12;72.95;101924.22;5188751;23;20128;-73
2023/04/10 02:10:43;;;;;;;13.02;7.80;;;;;;;8.08;73.16;101911.94;5115155;23;20992;-73
2023/04/10 02:13:12;;;;;;;11.57;7.53;;;;;;;8.06;72.85;101912.66;4995091;28;20065;-73
2023/04/10 02:15:42;;;;;;;11.67;7.40;;;;;;;8.07;73.03;101911.84;5293858;23;20055;-67
2023/04/10 02:18:09;;;;;;;13.40;7.72;;;;;;;8.07;72.79;101912.72;5152626;23;20755;-66
2023/04/10 02:20:36;;;;;;;12.32;7.57;;;;;;;8.08;72.57;101918.78;5294002;23;20054;-73
2023/04/10 02:28:09;;;;;;;15.15;9.55;;;;;;;8.00;73.58;101905.44;5074198;23;20081;-73
2023/04/10 02:30:34;;;;;;;14.50;8.82;;;;;;;7.96;73.69;101903.50;5219032;23;20100;-73
2023/04/10 02:33:00;;;;;;;15.20;9.63;;;;;;;7.91;74.08;101900.66;5018741;23;20049;-73
2023/04/10 02:35:25;;;;;;;14.57;8.82;;;;;;;7.86;73.90;101899.53;5150580;23;20194;-67
2023/04/10 02:40:20;;;;;;;14.65;8.57;;;;;;;7.80;74.69;101902.69;5186258;23;20061;-73
2023/04/10 02:45:34;;;;;;;13.27;9.07;;;;;;;7.73;74.76;101903.19;5314160;23;21171;-73
2023/04/10 02:47:59;;;;;;;14.35;9.25;;;;;;;7.72;74.83;101900.50;5206730;23;20049;-73
2023/04/10 02:50:28;;;;;;;14.98;9.27;;;;;;;7.70;75.02;101905.63;5310662;23;20065;-73
2023/04/10 02:52:53;;;;;;;14.45;8.75;;;;;;;7.68;75.80;101906.38;5203969;23;20049;-73
2023/04/10 02:55:19;;;;;;;13.40;9.18;;;;;;;7.65;75.43;101901.91;5202654;23;20061;-73
2023/04/10 02:57:45;;;;;;;13.13;8.70;;;;;;;7.65;75.83;101901.91;5161395;23;20061;-66
2023/04/10 03:02:45;;;;;;;15.35;9.85;;;;;;;7.60;75.78;101901.69;5111490;23;20445;-73
2023/04/10 03:05:11;;;;;;;15.23;9.48;;;;;;;7.58;76.04;101897.22;5281797;23;20042;-73
2023/04/10 03:10:06;;;;;;;14.57;9.70;;;;;;;7.55;75.50;101897.06;5150159;23;20514;-73
2023/04/10 03:12:32;;;;;;;14.68;9.20;;;;;;;7.55;75.42;101905.72;4959207;28;20029;-73
2023/04/10 03:14:57;;;;;;;16.43;8.93;;;;;;;7.58;75.44;101907.59;5125928;23;1066077;-73
2023/04/10 03:17:23;;;;;;;16.10;10.00;;;;;;;7.57;74.94;101911.84;5174852;23;20321;-73
2023/04/10 03:19:48;;;;;;;14.10;8.85;;;;;;;7.58;75.44;101910.19;5283792;23;20060;-74
2023/04/10 03:22:13;;;;;;;14.75;8.98;;;;;;;7.55;75.36;101905.72;5124763;23;20108;-73
2023/04/10 03:24:39;;;;;;;13.43;8.70;;;;;;;7.54;75.31;101909.09;4990867;28;20030;-73
2023/04/10 03:27:05;;;;;;;15.32;8.88;;;;;;;7.49;75.70;101911.47;5172299;23;20120;-67
2023/04/10 03:29:30;;;;;;;14.15;8.50;;;;;;;7.46;75.92;101902.66;5260421;23;20046;-66
2023/04/10 03:31:56;;;;;;;15.23;8.80;;;;;;;7.42;75.62;101904.16;5026458;22;20042;-73
2023/04/10 03:34:21;;;;;;;14.10;8.63;;;;;;;7.43;75.61;101905.97;5309630;23;20044;-66
2023/04/10 03:36:46;;;;;;;15.63;9.13;;;;;;;7.41;75.87;101902.38;5160549;23;20136;-73
2023/04/10 03:39:12;;;;;;;14.25;9.10;;;;;;;7.39;75.67;101890.16;5153414;23;20223;-73
2023/04/10 03:41:37;;;;;;;14.23;8.88;;;;;;;7.39;75.79;101891.03;5053778;23;20056;-73
2023/04/10 03:44:03;;;;;;;15.57;9.35;;;;;;;7.38;75.94;101885.78;5341833;23;20371;-73
2023/04/10 03:46:28;;;;;;;14.45;8.85;;;;;;;7.35;75.87;101889.09;5298022;23;20057;-73
2023/04/10 03:51:31;;;;;;;14.05;9.07;;;;;;;7.28;76.28;101884.38;5143312;23;20051;-73
2023/04/10 03:53:56;;;;;;;15.32;9.55;;;;;;;7.26;76.57;101873.06;5193244;23;20054;-73
2023/04/10 03:56:22;;;;;;;14.32;9.20;;;;;;;7.23;76.88;101878.09;5240717;23;21746;-66
2023/04/10 03:58:47;;;;;;;16.17;9.20;;;;;;;7.19;76.15;101871.81;5184594;23;20029;-73
2023/04/10 04:01:12;;;;;;;15.05;8.77;;;;;;;7.16;76.45;101871.66;5266325;23;20145;-66
2023/04/10 04:03:38;;;;;;;15.70;9.40;;;;;;;7.13;76.56;101872.38;5082546;23;20429;-73
2023/04/10 04:06:03;;;;;;;13.95;8.73;;;;;;;7.12;76.90;101870.59;5152486;23;20062;-73
2023/04/10 04:08:28;;;;;;;14.65;9.00;;;;;;;7.09;76.72;101866.94;5254235;23;20136;-67
2023/04/10 04:10:53;;;;;;;12.43;8.60;;;;;;;7.03;77.59;101872.69;5264183;23;20120;-66
2023/04/10 04:13:19;;;;;;;14.98;9.60;;;;;;;7.00;76.99;101863.88;4982783;28;20504;-66
2023/04/10 04:15:44;;;;;;;14.90;9.15;;;;;;;6.95;77.25;101858.41;5174737;23;20197;-66
2023/04/10 04:18:10;;;;;;;14.05;9.05;;;;;;;6.88;77.57;101858.88;5087860;23;20065;-66
2023/04/10 04:20:35;;;;;;;17.75;9.55;;;;;;;6.81;78.28;101854.16;5394539;23;20027;-73
2023/04/10 04:23:00;;;;;;;15.77;9.60;;;;;;;6.77;78.59;101853.13;5198586;23;20136;-66
2023/04/10 04:25:26;;;;;;;15.57;9.38;;;;;;;6.72;78.88;101855.47;5104173;23;20133;-66
2023/04/10 04:27:51;;;;;;;16.33;9.60;;;;;;;6.68;79.12;101848.34;5392311;23;20054;-66
2023/04/10 04:30:16;;;;;;;15.75;9.68;;;;;;;6.68;78.84;101843.16;5001314;28;21463;-66
2023/04/10 04:32:41;;;;;;;16.25;9.40;;;;;;;6.65;79.42;101840.41;5178780;23;20654;-66
2023/04/10 04:35:07;;;;;;;16.40;10.07;;;;;;;6.66;78.61;101844.75;5283717;23;20247;-73
2023/04/10 04:37:33;;;;;;;17.92;10.00;;;;;;;6.67;78.70;101849.13;5084861;22;20056;-67
2023/04/10 04:39:58;;;;;;;16.88;9.77;;;;;;;6.67;79.30;101841.34;5213689;23;20032;-67
2023/04/10 04:42:23;;;;;;;17.52;9.88;;;;;;;6.64;78.78;101841.19;5331716;23;20027;-66
2023/04/10 04:44:49;;;;;;;14.85;9.90;;;;;;;6.61;78.86;101843.63;5220731;23;20046;-66
2023/04/10 04:47:15;;;;;;;16.10;9.80;;;;;;;6.60;79.48;101840.16;5004448;28;20022;-66
2023/04/10 04:49:41;;;;;;;14.65;9.20;;;;;;;6.60;80.02;101836.66;5121915;23;20029;-66
2023/04/10 04:52:08;;;;;;;17.15;9.70;;;;;;;6.59;79.30;101846.13;4985004;28;20084;-66
2023/04/10 04:54:32;;;;;;;15.13;9.32;;;;;;;6.59;79.22;101832.28;5217366;23;20131;-66
2023/04/10 04:59:31;;;;;;;16.38;9.65;;;;;;;6.58;79.07;101835.69;5178712;23;20123;-73
2023/04/10 05:01:56;;;;;;;16.80;9.95;;;;;;;6.58;79.31;101835.69;5182632;23;20455;-66
2023/04/10 05:04:22;;;;;;;17.58;9.73;;;;;;;6.58;79.41;101827.91;5341821;23;20931;-66
2023/04/10 05:09:24;;;;;;;15.98;9.48;;;;;;;6.56;79.72;101826.91;4990135;28;20050;-66
2023/04/10 05:11:50;;;;;;;15.20;9.38;;;;;;;6.53;79.25;101821.56;5339114;23;20062;-67
2023/04/10 05:16:45;;;;;;;16.00;9.25;;;;;;;6.55;79.22;101815.69;5226204;23;20445;-66
2023/04/10 05:19:10;;;;;;;14.13;9.13;;;;;;;6.57;79.28;101811.47;5184154;23;20055;-66
2023/04/10 05:21:36;;;;;;;15.38;9.25;;;;;;;6.58;78.76;101800.31;5310086;23;20387;-73
2023/04/10 05:24:02;;;;;;;16.02;9.35;;;;;;;6.60;78.96;101805.56;5111816;23;20596;-73
2023/04/10 05:26:27;;;;;;;15.75;9.23;;;;;;;6.59;79.29;101804.69;4999504;28;20026;-73
2023/04/10 05:31:26;;;;;;;15.50;9.15;;;;;;;6.66;79.27;101808.50;5166749;23;20039;-73
2023/04/10 05:33:51;;;;;;;14.13;9.07;;;;;;;6.69;78.80;101807.78;5147480;23;20109;-66
2023/04/10 05:36:17;;;;;;;15.80;9.05;;;;;;;6.71;78.93;101809.66;5087171;23;20445;-66
2023/04/10 05:41:16;;;;;;;14.73;9.20;;;;;;;6.76;79.24;101809.88;5236746;23;20704;-73
2023/04/10 05:43:42;;;;;;;14.93;9.15;;;;;;;6.80;78.68;101814.44;5295305;23;20417;-66
2023/04/10 05:46:07;;;;;;;14.27;8.65;;;;;;;6.83;78.00;101811.13;5082046;23;20429;-73
2023/04/10 05:48:32;;;;;;;14.45;8.90;;;;;;;6.85;77.81;101805.22;5157186;23;20145;-66
2023/04/10 05:50:57;;;;;;;16.35;9.43;;;;;;;6.89;77.87;101804.56;5264665;23;20045;-73
2023/04/10 05:56:00;;;;;;;14.50;8.65;;;;;;;6.95;78.35;101812.69;5154310;22;20053;-67
2023/04/10 05:58:27;;;;;;;14.95;9.20;;;;;;;6.99;77.82;101821.50;5184735;23;20337;-67
2023/04/10 06:00:53;;;;;;;15.48;8.73;;;;;;;7.05;78.40;101823.53;5175409;23;20089;-66
2023/04/10 06:03:19;;;;;;;16.00;9.20;;;;;;;7.06;79.08;101823.63;5100284;23;20058;-73
2023/04/10 06:05:45;;;;;;;14.45;9.15;;;;;;;7.09;78.18;101825.50;5082833;23;20073;-66
2023/04/10 06:10:47;;;;;;;14.85;8.68;;;;;;;7.17;77.88;101823.28;5286320;23;20022;-66
2023/04/10 06:13:13;;;;;;;14.32;8.75;;;;;;;7.20;78.57;101824.38;4995346;28;20058;-66
2023/04/10 06:15:39;;;;;;;13.98;8.30;;;;;;;7.25;77.37;101816.81;5138903;23;20466;-73
2023/04/10 06:18:04;;;;;;;15.98;9.75;;;;;;;7.30;77.59;101810.19;5169626;23;20056;-66
2023/04/10 06:25:34;;;;;;;14.23;8.93;;;;;;;7.46;77.15;101812.75;5295537;23;20086;-73
2023/04/10 06:27:59;;;;;;;15.18;9.20;;;;;;;7.52;76.97;101803.50;5061970;23;20033;-67
2023/04/10 06:30:24;;;;;;;16.08;8.98;;;;;;;7.57;76.40;101791.69;4994827;28;20393;-66
2023/04/10 06:32:49;;;;;;;14.63;9.23;;;;;;;7.63;76.20;101789.38;5278105;23;20105;-73
2023/04/10 06:35:15;;;;;;;14.50;9.32;;;;;;;7.69;76.22;101779.34;5059546;23;21033;-73
2023/04/10 06:37:41;;;;;;;13.38;9.05;;;;;;;7.75;76.07;101784.84;5075592;23;20498;-66
2023/04/10 06:45:15;;;;;;;13.82;9.35;;;;;;;8.00;74.01;101775.66;5116995;23;20103;-74
2023/04/10 06:50:47;;;;;;;13.98;9.10;;;;;;;8.13;72.96;101761.59;5181559;23;20663;31
2023/04/10 06:53:12;;;;;;;15.73;8.93;;;;;;;8.21;72.92;101749.84;5104865;23;20069;-73
2023/04/10 06:55:38;;;;;;;14.65;8.35;;;;;;;8.27;73.25;101750.16;5191300;23;20054;-73
2023/04/10 06:58:03;;;;;;;15.23;9.02;;;;;;;8.33;73.40;101750.44;5094886;23;20073;-73
2023/04/10 07:00:29;;;;;;;13.73;8.45;;;;;;;8.36;72.66;101745.38;5178233;23;20126;-67
2023/04/10 07:02:54;;;;;;;13.52;8.70;;;;;;;8.43;72.92;101740.47;5104619;23;20036;-73
2023/04/10 07:05:19;;;;;;;15.02;8.73;;;;;;;8.47;72.08;101732.97;4979047;28;20039;-74
2023/04/10 07:10:15;;;;;;;13.55;8.13;;;;;;;8.58;71.50;101730.84;5231703;23;20443;-73
2023/04/10 07:12:43;;;;;;;13.13;8.20;;;;;;;8.61;71.23;101724.91;5022296;23;20451;-96
2023/04/10 07:15:11;;;;;;;13.27;8.48;;;;;;;8.66;70.92;101715.59;4977967;28;20030;-96
2023/04/10 07:17:40;;;;;;;12.35;8.45;;;;;;;8.69;71.82;101710.56;4981971;28;20574;-96
2023/04/10 07:20:06;;;;;;;14.30;8.90;;;;;;;8.73;71.02;101715.06;4978036;28;20026;-96
2023/04/10 07:22:34;;;;;;;15.95;8.75;;;;;;;8.75;70.81;101713.44;4989482;28;21105;-96
2023/04/10 07:27:29;;;;;;;14.75;8.70;;;;;;;8.85;71.94;101694.81;5007726;23;20038;-96
2023/04/10 07:29:55;;;;;;;14.93;8.68;;;;;;;8.92;69.70;101692.50;5004734;28;20038;-96
2023/04/10 07:32:21;;;;;;;12.77;7.88;;;;;;;8.97;70.01;101694.47;4991881;28;20042;-97
2023/04/10 07:34:47;;;;;;;12.77;8.30;;;;;;;9.03;70.93;101694.72;4994691;28;20034;-96
2023/04/10 07:37:12;;;;;;;13.85;8.48;;;;;;;9.12;70.29;101691.63;4992843;28;20046;-96
2023/04/10 07:39:38;;;;;;;12.52;8.23;;;;;;;9.21;70.20;101680.75;4988556;28;20535;-96
2023/04/10 07:42:11;;;;;;;11.30;7.18;;;;;;;9.30;68.90;101682.84;4984195;28;20018;-96
2023/04/10 07:44:36;;;;;;;12.00;7.60;;;;;;;9.43;67.89;101677.34;4984570;28;20034;-96
2023/04/10 07:47:02;;;;;;;12.48;7.45;;;;;;;9.55;67.02;101677.84;4988427;28;20029;-96
2023/04/10 07:49:28;;;;;;;12.98;8.07;;;;;;;9.66;67.29;101662.69;4987498;28;20098;-96
2023/04/10 07:51:53;;;;;;;11.65;7.50;;;;;;;9.78;66.21;101659.69;4990389;28;20086;-96
2023/04/10 07:54:25;;;;;;;13.73;8.07;;;;;;;9.90;65.56;101657.56;5005455;28;20437;-96
2023/04/10 07:57:04;;;;;;;11.32;7.75;;;;;;;10.10;67.68;101650.53;5018884;28;20038;-96
2023/04/10 07:59:32;;;;;;;11.52;7.57;;;;;;;10.34;64.71;101651.44;5004865;28;20035;-96
2023/04/10 08:02:01;;;;;;;12.00;7.93;;;;;;;10.54;65.94;101642.66;5000815;28;20048;-96
2023/04/10 08:04:26;;;;;;;11.68;7.50;;;;;;;10.73;65.73;101640.69;5015994;28;20022;-96
2023/04/10 08:06:55;;;;;;;11.50;7.20;;;;;;;10.90;65.20;101633.47;4996025;28;20053;-96
2023/04/10 08:09:24;;;;;;;11.70;8.05;;;;;;;11.03;65.84;101627.84;4991526;28;20064;-96
2023/04/10 08:11:55;;;;;;;10.77;7.18;;;;;;;11.07;62.17;101634.06;5000091;28;20046;-96
2023/04/10 08:21:57;;;;;;;12.10;7.35;;;;;;;10.89;63.02;101624.78;5081769;23;20054;-67
2023/04/10 08:24:22;;;;;;;10.85;7.03;;;;;;;10.88;63.00;101625.59;5011694;23;20077;-72
2023/04/10 08:26:48;;;;;;;11.13;7.55;;;;;;;10.92;64.84;101626.59;5192673;23;21134;-67
2023/04/10 08:29:13;;;;;;;10.43;7.18;;;;;;;10.98;64.50;101626.81;5293245;23;20069;-73
2023/04/10 08:34:10;;;;;;;10.07;6.95;;;;;;;11.07;63.69;101618.41;5023511;23;20093;-67
2023/04/10 08:36:39;;;;;;;10.15;7.25;;;;;;;11.09;61.97;101615.03;5142409;23;20054;-96
2023/04/10 08:41:34;;;;;;;11.57;7.18;;;;;;;11.29;63.92;101610.47;5011402;23;20084;-74
2023/04/10 08:49:55;;;;;;;11.18;7.68;;;;;;;11.45;63.06;101601.41;4953970;23;1080272;-67
2023/04/10 08:52:27;;;;;;;11.02;7.05;;;;;;;11.50;63.35;101601.59;4995472;28;20939;-67
2023/04/10 08:54:57;;;;;;;10.60;6.88;;;;;;;11.57;63.27;101597.41;4996395;28;20030;-67
2023/04/10 08:57:25;;;;;;;11.52;7.57;;;;;;;11.62;62.39;101609.78;4992556;28;20606;-66
2023/04/10 08:59:51;;;;;;;11.07;7.68;;;;;;;11.64;62.88;101610.75;4996269;28;20453;-65
2023/04/10 09:02:17;;;;;;;10.27;7.20;;;;;;;11.66;62.63;101598.59;4997652;28;20018;-65
2023/04/10 09:04:54;;;;;;;10.80;7.53;;;;;;;11.71;63.85;101608.31;4991869;28;20037;-65
2023/04/10 09:07:19;;;;;;;10.32;7.53;;;;;;;11.73;63.03;101599.69;4995910;28;20029;-65
2023/04/10 09:09:45;;;;;;;11.25;7.38;;;;;;;11.78;63.72;101592.88;4993859;28;20040;-65
2023/04/10 09:12:12;;;;;;;10.68;7.25;;;;;;;11.86;63.11;101597.44;4996963;28;20030;-65
2023/04/10 09:14:40;;;;;;;10.27;7.15;;;;;;;11.88;62.12;101588.81;4964839;28;20050;-65
2023/04/10 09:17:23;;;;;;;10.13;7.03;;;;;;;11.94;62.80;101590.78;4993312;28;20065;-65
2023/04/10 09:19:53;;;;;;;11.45;7.28;;;;;;;11.99;62.01;101584.84;4995665;28;20033;-66
2023/04/10 09:22:28;;;;;;;9.93;7.30;;;;;;;12.05;64.20;101586.75;4997630;28;20477;-65
2023/04/10 09:24:54;;;;;;;10.65;7.38;;;;;;;12.11;62.16;101584.31;4993971;28;20518;-65
2023/04/10 09:27:31;;;;;;;10.63;7.35;;;;;;;12.17;61.81;101581.00;4996302;28;20079;-65
2023/04/10 09:29:56;;;;;;;11.18;7.20;;;;;;;12.16;63.01;101580.09;4995968;28;20036;-65
2023/04/10 09:32:40;;;;;;;11.00;7.55;;;;;;;12.20;62.48;101578.47;4996168;28;20052;-65
2023/04/10 09:35:07;;;;;;;11.70;7.53;;;;;;;12.23;61.70;101557.66;4995430;28;20548;-65
2023/04/10 09:37:34;;;;;;;10.55;7.20;;;;;;;12.28;62.04;101555.16;4997482;28;20030;-65
2023/04/10 09:40:00;;;;;;;9.50;6.78;;;;;;;12.32;61.36;101557.91;4994762;28;20129;-65
2023/04/10 09:42:36;;;;;;;10.43;7.05;;;;;;;12.34;63.21;101543.16;4996208;28;20109;-65
2023/04/10 09:45:03;;;;;;;9.93;7.22;;;;;;;12.39;62.91;101534.56;4990009;28;20125;-65
2023/04/10 09:47:29;;;;;;;9.98;7.15;;;;;;;12.41;61.58;101527.63;4997579;28;20054;-65
2023/04/10 09:49:57;;;;;;;11.07;7.13;;;;;;;12.38;61.53;101524.94;4996365;28;20103;-65
2023/04/10 09:52:27;;;;;;;9.13;6.43;;;;;;;12.39;62.37;101521.50;4997282;28;20038;-65
2023/04/10 09:55:01;;;;;;;9.75;6.75;;;;;;;12.40;62.26;101518.94;4993396;28;20030;-65
2023/04/10 09:57:28;;;;;;;11.43;6.95;;;;;;;12.44;64.03;101523.41;4993163;28;20038;-65
2023/04/10 09:59:56;;;;;;;9.52;6.43;;;;;;;12.48;62.20;101519.13;4993543;28;20025;-65
2023/04/10 10:02:23;;;;;;;10.60;7.40;;;;;;;12.55;63.12;101512.34;4984996;28;20445;-65
2023/04/10 10:04:49;;;;;;;11.45;7.38;;;;;;;12.59;61.78;101515.06;4995052;28;20033;-65
2023/04/10 10:07:18;;;;;;;10.75;7.30;;;;;;;12.67;62.17;101508.31;4994180;28;20029;-65
2023/04/10 10:09:45;;;;;;;9.68;7.05;;;;;;;12.77;61.37;101503.31;4994613;28;20030;-65
2023/04/10 10:12:14;;;;;;;10.25;7.22;;;;;;;12.87;62.40;101506.22;4991163;28;20092;-65
2023/04/10 10:14:54;;;;;;;12.35;7.57;;;;;;;13.00;62.51;101507.38;4987619;28;20033;-63
2023/04/10 10:17:23;;;;;;;9.93;6.47;;;;;;;13.13;61.03;101507.69;4995598;28;20037;-62
2023/04/10 10:20:09;;;;;;;9.40;6.57;;;;;;;13.26;61.25;101488.78;4995281;28;20040;-63
2023/04/10 10:22:36;;;;;;;10.05;6.70;;;;;;;13.37;60.44;101484.72;4992207;28;20026;-63
2023/04/10 10:25:01;;;;;;;9.05;6.13;;;;;;;13.48;61.46;101484.06;4992799;28;20041;-63
2023/04/10 10:27:35;;;;;;;8.55;5.82;;;;;;;13.55;58.45;101484.22;4991638;28;20390;-63
2023/04/10 10:30:02;;;;;;;8.75;6.25;;;;;;;13.63;58.54;101479.16;4992232;28;20018;-63
2023/04/10 10:32:28;;;;;;;8.38;6.22;;;;;;;13.77;59.91;101463.72;4992595;28;20121;-63
2023/04/10 10:34:55;;;;;;;9.45;6.20;;;;;;;13.93;58.48;101467.53;4991334;28;21818;-63
2023/04/10 10:37:20;;;;;;;9.48;6.22;;;;;;;14.10;59.14;101462.63;4993908;28;20026;-63
2023/04/10 10:40:11;;;;;;;7.43;5.53;;;;;;;14.24;58.55;101448.03;4993724;28;20379;-63
2023/04/10 10:42:49;;;;;;;8.75;5.68;;;;;;;14.29;56.34;101450.75;4986160;28;20044;-63
2023/04/10 10:45:18;;;;;;;7.90;5.97;;;;;;;14.27;56.66;101441.97;4986220;28;20043;-63
2023/04/10 10:47:50;;;;;;;7.60;5.30;;;;;;;14.26;56.00;101440.22;4992088;28;20425;-62
2023/04/10 10:50:16;;;;;;;8.82;5.60;;;;;;;14.27;55.99;101441.97;4988888;28;20029;-63
2023/04/10 10:52:52;;;;;;;8.02;5.68;;;;;;;14.30;56.48;101433.31;4989205;28;20484;-63
2023/04/10 10:55:21;;;;;;;7.05;5.40;;;;;;;14.35;57.76;101424.66;4994389;28;20040;-63
2023/04/10 10:57:48;;;;;;;7.60;5.50;;;;;;;14.47;56.91;101428.31;4994016;28;20080;-63
2023/04/10 11:00:16;;;;;;;7.75;5.30;;;;;;;14.59;57.55;101415.44;4993126;28;20456;-63
2023/04/10 11:02:42;;;;;;;7.05;5.55;;;;;;;14.66;56.75;101408.59;4993030;28;20619;-63
2023/04/10 11:05:07;;;;;;;7.40;5.32;;;;;;;14.77;57.64;101413.13;4988404;28;20109;-63
2023/04/10 11:07:57;;;;;;;8.20;5.50;;;;;;;14.91;57.85;101407.22;4993809;28;20501;-63
2023/04/10 11:11:07;;;;;;;7.30;5.25;;;;;;;14.95;56.75;101415.16;4987866;28;20371;-63
2023/04/10 11:13:39;;;;;;;7.25;5.28;;;;;;;15.10;55.90;101406.59;4981302;28;20375;-63
2023/04/10 11:16:08;;;;;;;7.07;5.25;;;;;;;15.23;55.50;101402.41;4987755;28;20040;-62
2023/04/10 11:18:46;;;;;;;7.07;5.10;;;;;;;15.27;54.68;101393.72;4985612;28;20034;-64
2023/04/10 11:21:15;;;;;;;7.28;5.40;;;;;;;15.27;54.24;101392.84;4982951;28;20030;-63
2023/04/10 11:23:49;;;;;;;7.45;5.43;;;;;;;15.27;54.63;101390.22;4982815;28;20046;-63
2023/04/10 11:26:42;;;;;;;7.40;5.22;;;;;;;15.29;54.98;101376.25;4980816;28;20026;-63
2023/04/10 11:29:16;;;;;;;6.88;5.05;;;;;;;15.35;53.98;101370.19;4982496;28;20543;-63
2023/04/10 11:31:55;;;;;;;8.00;5.13;;;;;;;15.36;55.32;101355.31;4987336;28;20395;-63
2023/04/10 11:34:21;;;;;;;8.45;5.32;;;;;;;15.44;53.85;101348.41;4997719;28;20025;-63
2023/04/10 11:36:49;;;;;;;7.78;5.00;;;;;;;15.47;53.97;101340.56;4994645;28;20041;-67
2023/04/10 11:39:17;;;;;;;6.87;5.00;;;;;;;15.50;53.67;101350.19;4995782;28;20022;-67
2023/04/10 11:41:45;;;;;;;7.45;5.30;;;;;;;15.48;53.06;101353.72;4976826;28;20030;-67
2023/04/10 11:44:15;;;;;;;9.63;5.03;;;;;;;15.47;53.20;101335.31;4997593;28;20041;-67
2023/04/10 11:46:43;;;;;;;6.93;5.20;;;;;;;15.44;52.58;101338.78;4998456;28;20038;-68
2023/04/10 11:49:09;;;;;;;6.97;5.20;;;;;;;15.42;52.63;101335.25;4975596;28;20049;-67
2023/04/10 11:51:36;;;;;;;6.85;4.65;;;;;;;15.39;53.68;101332.59;4998182;28;20191;-67
2023/04/10 11:54:13;;;;;;;6.97;4.50;;;;;;;15.41;55.08;101327.34;4996385;28;20017;-67
2023/04/10 11:56:42;;;;;;;6.95;5.15;;;;;;;15.46;54.47;101323.03;4998388;28;20052;-67
2023/04/10 11:59:13;;;;;;;6.75;4.80;;;;;;;15.46;53.38;101323.03;4997433;28;20036;-67
2023/04/10 12:01:41;;;;;;;6.72;4.80;;;;;;;15.51;53.89;101323.09;4996413;28;20027;-67
2023/04/10 12:04:15;;;;;;;6.72;4.90;;;;;;;15.58;52.94;101323.19;4993407;28;20497;-67
2023/04/10 12:06:51;;;;;;;6.07;4.53;;;;;;;15.63;54.87;101315.34;4995019;28;20528;-68
2023/04/10 12:09:20;;;;;;;6.07;4.53;;;;;;;15.70;52.93;101318.91;4997389;28;20026;-67
2023/04/10 12:12:19;;;;;;;6.07;4.57;;;;;;;15.77;54.01;101313.75;4999383;28;20105;-67
2023/04/10 12:14:45;;;;;;;;;;;;;;;15.85;52.67;101300.69;4956672;28;20180;-68
2023/04/10 12:17:11;;;;;;;6.35;4.38;;;;;;;15.81;52.02;101309.41;4992125;28;19920;-68
2023/04/10 12:19:38;;;;;;;7.60;4.80;;;;;;;15.81;52.56;101299.81;4994020;28;20033;-68
2023/04/10 12:22:03;;;;;;;6.30;4.60;;;;;;;15.85;52.33;101300.69;4999029;28;20092;-68
2023/04/10 12:24:52;;;;;;;6.20;4.63;;;;;;;15.86;54.08;101293.69;4995565;28;20026;-68
2023/04/10 12:27:20;;;;;;;7.80;4.70;;;;;;;15.88;53.36;101291.97;4995670;28;20030;-68
2023/04/10 12:29:47;;;;;;;5.40;4.40;;;;;;;15.89;52.16;101280.56;4997600;28;20037;-68
2023/04/10 12:32:13;;;;;;;6.93;4.70;;;;;;;15.88;53.26;101284.09;4997963;28;20022;-68
2023/04/10 12:34:39;;;;;;;6.75;4.80;;;;;;;15.88;51.96;101289.34;4995698;28;20928;-68
2023/04/10 12:37:05;;;;;;;6.70;5.05;;;;;;;15.87;52.25;101277.06;4997771;28;20109;-63
2023/04/10 12:39:30;;;;;;;6.05;4.50;;;;;;;15.85;51.85;101271.78;4995727;28;20022;-63
2023/04/10 12:42:15;;;;;;;6.65;4.70;;;;;;;15.84;53.21;101270.03;4995865;28;20029;-64
2023/04/10 12:44:58;;;;;;;6.63;4.50;;;;;;;15.76;52.59;101266.44;4994252;28;20397;-64
2023/04/10 12:47:24;;;;;;;8.27;4.78;;;;;;;15.74;51.88;101262.91;4998958;28;20041;-63
2023/04/10 12:50:03;;;;;;;6.57;4.47;;;;;;;15.72;52.38;101272.53;4996574;28;20099;-63
2023/04/10 12:52:28;;;;;;;5.63;4.23;;;;;;;15.68;52.74;101252.34;4997827;28;20401;-63
2023/04/10 12:54:53;;;;;;;6.10;4.03;;;;;;;15.63;52.74;101255.78;4995659;28;20134;-63
2023/04/10 12:57:26;;;;;;;6.40;5.00;;;;;;;15.62;53.20;101261.91;4976443;28;20042;-63
2023/04/10 12:59:52;;;;;;;5.35;4.07;;;;;;;15.61;53.02;101247.03;4995472;28;20493;-63
2023/04/10 13:02:19;;;;;;;5.35;4.20;;;;;;;15.59;52.84;101248.75;4997132;28;20037;-63
2023/04/10 13:04:45;;;;;;;6.40;4.47;;;;;;;15.59;53.04;101238.25;4996707;28;21510;-63
2023/04/10 13:07:10;;;;;;;5.45;4.40;;;;;;;15.60;52.33;101232.13;4997926;28;21135;-63
2023/04/10 13:09:36;;;;;;;5.57;4.18;;;;;;;15.59;52.21;101233.00;4997151;28;20033;-63
2023/04/10 13:12:02;;;;;;;5.88;4.07;;;;;;;15.61;51.69;101227.75;4996246;28;20057;-63
2023/04/10 13:14:28;;;;;;;5.90;4.00;;;;;;;15.60;52.80;101218.13;4994243;28;20595;-63
2023/04/10 13:16:53;;;;;;;7.03;4.30;;;;;;;15.60;53.13;101205.88;4992666;28;20041;-63
2023/04/10 13:19:18;;;;;;;6.22;4.32;;;;;;;15.59;53.49;101211.09;4993034;28;20033;-63
2023/04/10 13:21:44;;;;;;;6.50;4.10;;;;;;;15.56;52.56;101211.09;4985615;28;20064;-63
2023/04/10 13:24:09;;;;;;;6.72;4.53;;;;;;;15.52;52.51;101196.16;4986511;28;20051;-63
2023/04/10 13:26:34;;;;;;;5.82;4.25;;;;;;;15.52;52.29;101202.28;4986126;28;20064;-63
2023/04/10 13:28:59;;;;;;;5.63;4.13;;;;;;;15.54;52.98;101197.03;4983955;28;20497;-63